createdAt,value
2023-05-13T00:01:25.710Z,5.90
2023-05-13T00:03:52.499Z,6.60
2023-05-13T00:06:19.393Z,5.77
2023-05-13T00:08:46.393Z,6.90
2023-05-13T00:11:13.172Z,6.87
2023-05-13T00:13:40.182Z,6.70
2023-05-13T00:16:07.460Z,6.97
2023-05-13T00:18:34.389Z,7.23
2023-05-13T00:21:01.335Z,7.97
2023-05-13T00:23:28.215Z,8.57
2023-05-13T00:25:55.118Z,8.87
2023-05-13T00:28:21.976Z,9.33
2023-05-13T00:30:49.447Z,8.80
2023-05-13T00:33:16.587Z,8.17
2023-05-13T00:35:43.598Z,7.43
2023-05-13T00:38:10.488Z,7.33
2023-05-13T00:40:39.704Z,7.60
2023-05-13T00:43:06.541Z,7.57
2023-05-13T00:45:33.480Z,6.80
2023-05-13T00:48:00.719Z,6.30
2023-05-13T00:50:27.699Z,6.73
2023-05-13T00:52:57.608Z,5.87
2023-05-13T00:55:24.670Z,6.70
2023-05-13T00:57:51.515Z,5.90
2023-05-13T01:00:18.873Z,6.00
2023-05-13T01:02:51.014Z,6.93
2023-05-13T01:05:31.697Z,6.80
2023-05-13T01:08:10.800Z,6.43
2023-05-13T01:10:45.579Z,7.93
2023-05-13T01:13:13.596Z,7.57
2023-05-13T01:15:46.978Z,8.73
2023-05-13T01:18:17.020Z,8.40
2023-05-13T01:20:44.682Z,6.83
2023-05-13T01:23:12.455Z,5.97
2023-05-13T01:25:40.332Z,6.23
2023-05-13T01:28:07.868Z,6.80
2023-05-13T01:30:36.453Z,6.60
2023-05-13T01:33:05.977Z,6.20
2023-05-13T01:35:33.315Z,6.20
2023-05-13T01:38:00.925Z,6.03
2023-05-13T01:40:32.826Z,6.03
2023-05-13T01:43:06.483Z,5.23
2023-05-13T01:45:33.881Z,5.73
2023-05-13T01:48:01.628Z,6.33
2023-05-13T01:50:38.187Z,6.13
2023-05-13T01:53:05.811Z,8.93
2023-05-13T01:55:32.619Z,8.13
2023-05-13T01:58:01.659Z,9.40
2023-05-13T02:00:29.498Z,8.70
2023-05-13T02:02:56.549Z,8.27
2023-05-13T02:05:23.614Z,7.30
2023-05-13T02:07:51.406Z,7.20
2023-05-13T02:10:18.253Z,7.03
2023-05-13T02:12:45.358Z,7.10
2023-05-13T02:15:12.276Z,7.00
2023-05-13T02:17:39.152Z,6.30
2023-05-13T02:20:06.959Z,7.33
2023-05-13T02:22:35.722Z,6.67
2023-05-13T02:25:04.044Z,6.33
2023-05-13T02:27:31.052Z,6.93
2023-05-13T02:29:58.008Z,6.50
2023-05-13T02:32:25.501Z,5.53
2023-05-13T02:34:52.537Z,6.00
2023-05-13T02:37:20.817Z,6.27
2023-05-13T02:39:56.608Z,6.53
2023-05-13T02:42:24.133Z,6.43
2023-05-13T02:44:50.985Z,6.70
2023-05-13T02:47:18.909Z,6.57
2023-05-13T02:49:46.054Z,7.00
2023-05-13T02:52:12.865Z,6.63
2023-05-13T02:54:39.949Z,6.30
2023-05-13T02:57:06.879Z,6.53
2023-05-13T02:59:34.268Z,6.27
2023-05-13T03:02:01.238Z,5.73
2023-05-13T03:04:28.055Z,5.70
2023-05-13T03:06:55.517Z,37.83
2023-05-13T03:09:22.441Z,104.17
2023-05-13T03:11:49.387Z,19.77
2023-05-13T03:14:16.318Z,8.03
2023-05-13T03:16:44.996Z,7.30
2023-05-13T03:19:13.994Z,7.27
2023-05-13T03:21:41.496Z,6.70
2023-05-13T03:24:11.813Z,7.17
2023-05-13T03:26:38.832Z,10.63
2023-05-13T03:29:06.247Z,6.50
2023-05-13T03:31:35.012Z,5.90
2023-05-13T03:34:03.914Z,6.37
2023-05-13T03:36:31.042Z,5.97
2023-05-13T03:38:58.252Z,5.97
2023-05-13T03:41:25.078Z,7.90
2023-05-13T03:43:52.231Z,7.47
2023-05-13T03:46:19.137Z,7.23
2023-05-13T03:48:46.132Z,8.57
2023-05-13T03:51:13.265Z,8.03
2023-05-13T03:53:40.292Z,8.37
2023-05-13T03:56:07.737Z,7.43
2023-05-13T03:58:34.681Z,8.23
2023-05-13T04:01:01.892Z,8.43
2023-05-13T04:03:28.849Z,8.37
2023-05-13T04:05:56.771Z,8.93
2023-05-13T04:08:23.554Z,9.17
2023-05-13T04:10:50.490Z,9.20
2023-05-13T04:13:18.570Z,9.40
2023-05-13T04:15:45.441Z,9.23
2023-05-13T04:18:12.236Z,8.97
2023-05-13T04:20:42.600Z,10.67
2023-05-13T04:23:10.559Z,11.63
2023-05-13T04:25:40.376Z,11.17
2023-05-13T04:28:07.688Z,10.10
2023-05-13T04:30:39.153Z,8.60
2023-05-13T04:33:06.915Z,8.60
2023-05-13T04:35:35.525Z,7.63
2023-05-13T04:38:04.724Z,8.27
2023-05-13T04:40:31.589Z,8.80
2023-05-13T04:43:04.169Z,8.73
2023-05-13T04:45:37.178Z,6.80
2023-05-13T04:48:07.105Z,7.63
2023-05-13T04:50:35.394Z,7.63
2023-05-13T04:53:03.193Z,8.03
2023-05-13T04:55:30.286Z,6.47
2023-05-13T04:57:57.114Z,6.83
2023-05-13T05:00:24.336Z,6.80
2023-05-13T05:02:52.162Z,6.47
2023-05-13T05:05:19.770Z,7.30
2023-05-13T05:07:46.914Z,7.40
2023-05-13T05:10:15.716Z,6.90
2023-05-13T05:12:48.528Z,6.67
2023-05-13T05:15:17.999Z,6.80
2023-05-13T05:17:48.360Z,6.70
2023-05-13T05:20:15.529Z,6.00
2023-05-13T05:22:43.026Z,6.93
2023-05-13T05:25:11.874Z,6.70
2023-05-13T05:27:39.118Z,6.13
2023-05-13T05:30:07.289Z,6.47
2023-05-13T05:32:35.850Z,6.23
2023-05-13T05:35:04.722Z,7.40
2023-05-13T05:37:33.038Z,7.20
2023-05-13T05:40:00.363Z,6.40
2023-05-13T05:42:28.096Z,6.90
2023-05-13T05:44:55.014Z,6.47
2023-05-13T05:47:21.899Z,6.87
2023-05-13T05:49:49.026Z,7.93
2023-05-13T05:52:16.514Z,6.97
2023-05-13T05:54:43.934Z,6.63
2023-05-13T05:57:11.227Z,6.67
2023-05-13T05:59:38.834Z,6.83
2023-05-13T06:02:06.642Z,6.87
2023-05-13T06:04:33.665Z,6.90
2023-05-13T06:07:00.634Z,6.80
2023-05-13T06:09:27.891Z,6.50
2023-05-13T06:11:55.164Z,7.80
2023-05-13T06:14:23.443Z,6.53
2023-05-13T06:16:50.295Z,6.80
2023-05-13T06:19:17.215Z,6.27
2023-05-13T06:21:45.259Z,7.07
2023-05-13T06:24:12.156Z,7.10
2023-05-13T06:26:40.396Z,6.93
2023-05-13T06:29:07.185Z,7.03
2023-05-13T06:31:34.261Z,7.00
2023-05-13T06:34:01.870Z,6.40
2023-05-13T06:36:28.755Z,7.47
2023-05-13T06:38:55.813Z,6.20
2023-05-13T06:41:24.304Z,6.63
2023-05-13T06:43:53.371Z,7.00
2023-05-13T06:46:22.004Z,7.50
2023-05-13T06:48:52.371Z,7.37
2023-05-13T06:51:19.449Z,7.33
2023-05-13T06:53:46.534Z,8.03
2023-05-13T06:56:13.430Z,7.83
2023-05-13T06:58:40.329Z,7.13
2023-05-13T07:01:07.227Z,6.10
2023-05-13T07:03:34.242Z,6.13
2023-05-13T07:06:01.113Z,4.77
2023-05-13T07:08:27.892Z,4.77
2023-05-13T07:10:54.797Z,4.03
2023-05-13T07:13:22.605Z,4.60
2023-05-13T07:15:49.507Z,5.83
2023-05-13T07:18:16.468Z,4.30
2023-05-13T07:20:43.343Z,4.30
2023-05-13T07:23:10.271Z,4.40
2023-05-13T07:25:37.114Z,5.00
2023-05-13T07:28:04.487Z,4.20
2023-05-13T07:30:31.467Z,3.63
2023-05-13T07:32:58.342Z,4.20
2023-05-13T07:35:25.126Z,4.43
2023-05-13T07:37:52.180Z,4.60
2023-05-13T07:40:20.495Z,3.90
2023-05-13T07:42:47.528Z,4.00
2023-05-13T07:45:14.533Z,4.37
2023-05-13T07:47:43.007Z,3.50
2023-05-13T07:50:11.403Z,3.90
2023-05-13T07:52:38.392Z,3.93
2023-05-13T07:55:05.826Z,3.47
2023-05-13T07:57:32.725Z,3.80
2023-05-13T07:59:59.592Z,3.77
2023-05-13T08:02:27.283Z,2.97
2023-05-13T08:04:54.230Z,2.63
2023-05-13T08:07:21.315Z,3.13
2023-05-13T08:09:48.090Z,3.43
2023-05-13T08:12:15.117Z,3.13
2023-05-13T08:14:42.030Z,3.33
2023-05-13T08:17:09.047Z,2.80
2023-05-13T08:19:36.212Z,2.40
2023-05-13T08:22:03.134Z,2.63
2023-05-13T08:24:30.227Z,2.70
2023-05-13T08:26:57.081Z,2.80
2023-05-13T08:29:23.892Z,2.73
2023-05-13T08:31:51.151Z,2.73
2023-05-13T08:34:18.035Z,2.27
2023-05-13T08:36:44.960Z,2.90
2023-05-13T08:39:11.816Z,2.80
2023-05-13T08:41:39.209Z,2.63
2023-05-13T08:44:09.334Z,2.60
2023-05-13T08:46:38.074Z,3.10
2023-05-13T08:49:05.129Z,2.80
2023-05-13T08:51:32.316Z,2.83
2023-05-13T08:54:01.104Z,2.47
2023-05-13T08:56:28.557Z,3.23
2023-05-13T08:58:55.589Z,3.00
2023-05-13T09:01:22.971Z,2.60
2023-05-13T09:03:55.432Z,2.53
2023-05-13T09:06:22.470Z,2.50
2023-05-13T09:08:49.399Z,2.87
2023-05-13T09:11:16.687Z,3.00
2023-05-13T09:13:56.695Z,3.10
2023-05-13T09:16:23.969Z,3.00
2023-05-13T09:18:55.830Z,3.40
2023-05-13T09:21:27.314Z,3.23
2023-05-13T09:24:11.537Z,2.77
2023-05-13T09:26:39.157Z,2.80
2023-05-13T09:29:25.554Z,4.97
2023-05-13T09:31:56.703Z,3.37
2023-05-13T09:34:28.260Z,2.77
2023-05-13T09:36:58.030Z,3.23
2023-05-13T09:39:24.942Z,3.07
2023-05-13T09:41:52.568Z,3.40
2023-05-13T09:44:19.826Z,3.30
2023-05-13T09:46:46.770Z,3.77
2023-05-13T09:49:14.946Z,3.30
2023-05-13T09:51:44.125Z,2.80
2023-05-13T09:54:11.753Z,2.80
2023-05-13T09:56:39.805Z,3.47
2023-05-13T09:59:06.684Z,3.00
2023-05-13T10:01:35.128Z,2.60
2023-05-13T10:04:02.257Z,2.73
2023-05-13T10:06:30.560Z,2.93
2023-05-13T10:09:04.281Z,2.90
2023-05-13T10:11:33.487Z,2.10
2023-05-13T10:14:02.106Z,2.97
2023-05-13T10:16:32.092Z,2.60
2023-05-13T10:18:59.671Z,2.63
2023-05-13T10:21:29.856Z,2.73
2023-05-13T10:23:56.791Z,2.73
2023-05-13T10:26:24.316Z,3.30
2023-05-13T10:28:51.319Z,2.90
2023-05-13T10:31:18.206Z,2.77
2023-05-13T10:33:46.039Z,2.60
2023-05-13T10:36:22.322Z,3.63
2023-05-13T10:39:01.668Z,2.70
2023-05-13T10:41:47.138Z,2.60
2023-05-13T10:44:14.117Z,2.57
2023-05-13T10:46:43.232Z,2.30
2023-05-13T10:49:14.249Z,2.10
2023-05-13T10:51:44.792Z,1.80
2023-05-13T10:54:18.798Z,2.10
2023-05-13T10:56:45.966Z,2.17
2023-05-13T10:59:13.116Z,1.90
2023-05-13T11:01:46.050Z,1.87
2023-05-13T11:04:17.212Z,1.90
2023-05-13T11:06:46.500Z,2.10
2023-05-13T11:09:14.327Z,1.53
2023-05-13T11:11:41.391Z,1.90
2023-05-13T11:14:21.549Z,2.30
2023-05-13T11:17:00.854Z,2.07
2023-05-13T11:19:28.969Z,2.30
2023-05-13T11:21:57.294Z,1.77
2023-05-13T11:24:24.639Z,2.40
2023-05-13T11:27:02.157Z,2.33
2023-05-13T11:29:36.238Z,2.30
2023-05-13T11:32:04.405Z,2.30
2023-05-13T11:34:31.966Z,2.10
2023-05-13T11:37:04.847Z,2.13
2023-05-13T11:39:32.455Z,2.10
2023-05-13T11:42:01.969Z,2.53
2023-05-13T11:44:28.990Z,2.60
2023-05-13T11:47:00.252Z,1.97
2023-05-13T11:49:40.353Z,2.00
2023-05-13T11:52:17.605Z,2.17
2023-05-13T11:54:52.580Z,2.87
2023-05-13T11:57:24.007Z,2.80
2023-05-13T11:59:58.735Z,2.87
2023-05-13T12:02:25.991Z,2.57
2023-05-13T12:04:53.514Z,2.40
2023-05-13T12:07:22.975Z,2.77
2023-05-13T12:09:50.370Z,2.93
2023-05-13T12:12:17.969Z,2.30
2023-05-13T12:14:46.453Z,2.50
2023-05-13T12:17:14.362Z,3.00
2023-05-13T12:19:41.722Z,2.70
2023-05-13T12:22:09.035Z,2.77
2023-05-13T12:24:36.008Z,2.80
2023-05-13T12:27:09.412Z,2.73
2023-05-13T12:29:42.661Z,3.00
2023-05-13T12:32:12.188Z,3.00
2023-05-13T12:34:39.370Z,2.93
2023-05-13T12:37:12.745Z,3.27
2023-05-13T12:39:42.898Z,3.10
2023-05-13T12:42:16.725Z,2.57
2023-05-13T12:44:47.342Z,2.67
2023-05-13T12:47:15.915Z,2.53
2023-05-13T12:49:57.305Z,3.10
2023-05-13T12:52:24.508Z,2.70
2023-05-13T12:54:51.282Z,2.97
2023-05-13T12:57:18.690Z,2.60
2023-05-13T12:59:46.102Z,4.20
2023-05-13T13:02:13.083Z,3.17
2023-05-13T13:04:40.024Z,2.97
2023-05-13T13:07:12.852Z,3.80
2023-05-13T13:09:39.806Z,4.07
2023-05-13T13:12:06.781Z,2.83
2023-05-13T13:14:33.773Z,2.97
2023-05-13T13:17:00.559Z,3.37
2023-05-13T13:19:27.518Z,4.00
2023-05-13T13:21:54.314Z,2.93
2023-05-13T13:24:21.227Z,3.00
2023-05-13T13:26:50.595Z,2.50
2023-05-13T13:29:17.455Z,2.63
2023-05-13T13:31:44.318Z,7.57
2023-05-13T13:34:12.324Z,3.33
2023-05-13T13:36:39.586Z,4.40
2023-05-13T13:39:06.437Z,3.87
2023-05-13T13:41:33.355Z,3.10
2023-05-13T13:44:00.157Z,3.13
2023-05-13T13:46:27.218Z,3.80
2023-05-13T13:48:54.083Z,3.00
2023-05-13T13:51:21.610Z,3.90
2023-05-13T13:53:49.576Z,4.47
2023-05-13T13:56:16.489Z,4.87
2023-05-13T13:58:43.279Z,4.83
2023-05-13T14:01:10.346Z,3.33
2023-05-13T14:03:37.230Z,4.00
2023-05-13T14:06:04.369Z,4.17
2023-05-13T14:08:31.280Z,3.07
2023-05-13T14:10:58.276Z,3.73
2023-05-13T14:13:25.069Z,8.63
2023-05-13T14:15:52.042Z,7.40
2023-05-13T14:18:18.889Z,7.03
2023-05-13T14:20:47.705Z,12.07
2023-05-13T14:23:14.633Z,3.60
2023-05-13T14:25:41.636Z,4.70
2023-05-13T14:28:08.426Z,11.00
2023-05-13T14:30:35.352Z,3.13
2023-05-13T14:33:02.357Z,4.63
2023-05-13T14:35:29.342Z,6.27
2023-05-13T14:37:56.322Z,5.47
2023-05-13T14:40:23.382Z,4.77
2023-05-13T14:42:50.558Z,4.00
2023-05-13T14:45:18.575Z,4.90
2023-05-13T14:47:45.819Z,3.30
2023-05-13T14:50:12.911Z,5.53
2023-05-13T14:52:39.692Z,4.60
2023-05-13T14:55:06.782Z,2.57
2023-05-13T14:57:33.690Z,4.10
2023-05-13T15:00:00.591Z,3.77
2023-05-13T15:02:27.574Z,4.80
2023-05-13T15:04:54.467Z,4.37
2023-05-13T15:07:21.574Z,3.07
2023-05-13T15:09:48.400Z,13.60
2023-05-13T15:12:15.194Z,7.33
2023-05-13T15:14:42.027Z,5.30
2023-05-13T15:17:12.175Z,3.37
2023-05-13T15:19:39.268Z,2.93
2023-05-13T15:22:06.088Z,3.07
2023-05-13T15:24:33.156Z,3.50
2023-05-13T15:27:01.814Z,3.27
2023-05-13T15:29:28.600Z,2.83
2023-05-13T15:31:55.473Z,3.17
2023-05-13T15:34:22.308Z,2.40
2023-05-13T15:36:49.142Z,3.50
2023-05-13T15:39:19.465Z,6.83
2023-05-13T15:41:46.629Z,6.87
2023-05-13T15:44:13.450Z,6.90
2023-05-13T15:46:41.258Z,4.17
2023-05-13T15:49:08.179Z,3.60
2023-05-13T15:51:35.874Z,6.03
2023-05-13T15:54:02.768Z,5.40
2023-05-13T15:56:29.763Z,3.00
2023-05-13T15:58:56.547Z,3.70
2023-05-13T16:01:23.516Z,3.53
2023-05-13T16:03:50.298Z,2.67
2023-05-13T16:06:17.313Z,2.37
2023-05-13T16:08:44.226Z,2.80
2023-05-13T16:11:13.174Z,2.50
2023-05-13T16:13:40.294Z,2.50
2023-05-13T16:16:07.499Z,2.20
2023-05-13T16:18:34.521Z,3.13
2023-05-13T16:21:01.342Z,2.23
2023-05-13T16:23:29.008Z,2.47
2023-05-13T16:25:55.835Z,2.70
2023-05-13T16:28:23.139Z,2.57
2023-05-13T16:30:49.955Z,2.30
2023-05-13T16:33:17.957Z,2.60
2023-05-13T16:35:44.872Z,2.50
2023-05-13T16:38:11.763Z,2.20
2023-05-13T16:40:38.607Z,8.17
2023-05-13T16:43:05.568Z,6.70
2023-05-13T16:45:32.420Z,7.57
2023-05-13T16:47:59.448Z,6.27
2023-05-13T16:50:26.575Z,10.27
2023-05-13T16:52:54.836Z,4.87
2023-05-13T16:55:22.746Z,3.20
2023-05-13T16:57:49.658Z,3.80
2023-05-13T17:00:17.023Z,3.10
2023-05-13T17:02:44.093Z,2.73
2023-05-13T17:05:10.974Z,7.30
2023-05-13T17:07:37.962Z,12.20
2023-05-13T17:10:04.988Z,3.70
2023-05-13T17:12:31.897Z,3.00
2023-05-13T17:14:58.765Z,4.20
2023-05-13T17:17:25.786Z,2.23
2023-05-13T17:19:52.590Z,2.50
2023-05-13T17:22:19.542Z,2.37
2023-05-13T17:24:46.360Z,2.33
2023-05-13T17:27:13.247Z,2.70
2023-05-13T17:29:40.274Z,2.60
2023-05-13T17:32:07.239Z,2.70
2023-05-13T17:34:34.444Z,2.50
2023-05-13T17:37:01.314Z,4.97
2023-05-13T17:39:28.522Z,4.17
2023-05-13T17:41:56.075Z,8.70
2023-05-13T17:44:24.142Z,7.50
2023-05-13T17:46:51.105Z,13.70
2023-05-13T17:49:18.011Z,13.40
2023-05-13T17:51:44.967Z,10.10
2023-05-13T17:54:11.909Z,5.50
2023-05-13T17:56:38.752Z,9.80
2023-05-13T17:59:07.050Z,6.37
2023-05-13T18:01:33.937Z,5.20
2023-05-13T18:04:01.020Z,5.43
2023-05-13T18:06:27.875Z,4.97
2023-05-13T18:08:54.838Z,5.23
2023-05-13T18:11:22.238Z,4.07
2023-05-13T18:13:49.573Z,3.83
2023-05-13T18:16:19.250Z,3.70
2023-05-13T18:18:48.887Z,3.40
2023-05-13T18:21:15.929Z,14.40
2023-05-13T18:23:45.903Z,5.07
2023-05-13T18:26:13.293Z,3.70
2023-05-13T18:28:41.667Z,3.63
2023-05-13T18:31:08.581Z,4.30
2023-05-13T18:33:35.443Z,3.40
2023-05-13T18:36:02.380Z,3.53
2023-05-13T18:38:29.173Z,4.03
2023-05-13T18:40:56.153Z,4.70
2023-05-13T18:43:22.978Z,5.47
2023-05-13T18:45:50.006Z,5.03
2023-05-13T18:48:17.007Z,4.90
2023-05-13T18:50:43.826Z,5.67
2023-05-13T18:53:10.731Z,5.30
2023-05-13T18:55:37.636Z,5.20
2023-05-13T18:58:04.438Z,5.53
2023-05-13T19:00:31.286Z,5.53
2023-05-13T19:02:58.351Z,5.73
2023-05-13T19:05:25.271Z,6.40
2023-05-13T19:07:52.212Z,5.97
2023-05-13T19:10:19.080Z,6.57
2023-05-13T19:12:45.902Z,7.60
2023-05-13T19:15:13.230Z,9.23
2023-05-13T19:17:41.213Z,9.60
2023-05-13T19:20:08.476Z,10.97
2023-05-13T19:22:35.556Z,10.07
2023-05-13T19:25:02.318Z,10.90
2023-05-13T19:27:29.164Z,11.23
2023-05-13T19:29:56.335Z,10.40
2023-05-13T19:32:23.361Z,11.17
2023-05-13T19:34:50.189Z,10.63
2023-05-13T19:37:17.098Z,10.53
2023-05-13T19:39:43.856Z,11.53
2023-05-13T19:42:10.785Z,10.13
2023-05-13T19:44:37.665Z,12.20
2023-05-13T19:47:06.516Z,11.63
2023-05-13T19:49:33.339Z,11.00
2023-05-13T19:52:00.395Z,11.53
2023-05-13T19:54:27.224Z,10.83
2023-05-13T19:56:54.082Z,10.27
2023-05-13T19:59:20.967Z,10.70
2023-05-13T20:01:47.862Z,10.53
2023-05-13T20:04:14.864Z,11.47
2023-05-13T20:06:41.753Z,11.43
2023-05-13T20:09:10.016Z,12.73
2023-05-13T20:11:36.863Z,12.60
2023-05-13T20:14:04.421Z,12.43
2023-05-13T20:16:31.238Z,12.90
2023-05-13T20:18:58.221Z,12.20
2023-05-13T20:21:25.175Z,12.73
2023-05-13T20:23:52.064Z,14.23
2023-05-13T20:26:18.848Z,13.33
2023-05-13T20:28:47.946Z,14.57
2023-05-13T20:31:15.253Z,14.37
2023-05-13T20:33:42.175Z,14.27
2023-05-13T20:36:09.188Z,14.30
2023-05-13T20:38:35.964Z,15.80
2023-05-13T20:41:02.774Z,15.03
2023-05-13T20:43:30.853Z,14.77
2023-05-13T20:45:57.792Z,15.00
2023-05-13T20:48:24.656Z,14.10
2023-05-13T20:50:58.650Z,15.07
2023-05-13T20:53:25.558Z,15.40
2023-05-13T20:55:52.343Z,16.00
2023-05-13T20:58:19.636Z,16.43
2023-05-13T21:00:46.394Z,19.00
2023-05-13T21:03:13.338Z,18.70
2023-05-13T21:05:40.252Z,18.60
2023-05-13T21:08:07.203Z,18.20
2023-05-13T21:10:34.315Z,17.80
2023-05-13T21:13:01.990Z,17.80
2023-05-13T21:15:28.876Z,17.90
2023-05-13T21:17:55.829Z,16.63
2023-05-13T21:20:23.060Z,17.03
2023-05-13T21:22:50.210Z,16.40
2023-05-13T21:25:16.987Z,14.40
2023-05-13T21:27:43.917Z,13.87
2023-05-13T21:30:10.905Z,13.53
2023-05-13T21:32:37.822Z,12.47
2023-05-13T21:35:04.970Z,13.03
2023-05-13T21:37:31.872Z,14.90
2023-05-13T21:39:58.821Z,14.33
2023-05-13T21:42:27.239Z,14.90
2023-05-13T21:44:54.103Z,16.90
2023-05-13T21:47:21.362Z,16.33
2023-05-13T21:49:48.154Z,15.23
2023-05-13T21:52:15.200Z,15.43
2023-05-13T21:54:42.049Z,15.10
2023-05-13T21:57:09.214Z,15.77
2023-05-13T21:59:35.971Z,15.10
2023-05-13T22:02:03.332Z,13.90
2023-05-13T22:04:30.166Z,13.80
2023-05-13T22:06:57.047Z,13.73
2023-05-13T22:09:23.942Z,14.40
2023-05-13T22:11:51.363Z,15.33
2023-05-13T22:14:18.318Z,13.97
2023-05-13T22:16:49.929Z,13.80
2023-05-13T22:19:24.625Z,11.10
2023-05-13T22:21:51.575Z,11.30
2023-05-13T22:24:18.520Z,10.67
2023-05-13T22:26:45.312Z,10.30
2023-05-13T22:29:12.175Z,11.90
2023-05-13T22:31:39.137Z,11.07
2023-05-13T22:34:06.178Z,10.67
2023-05-13T22:36:33.025Z,11.20
2023-05-13T22:39:00.127Z,11.27
2023-05-13T22:41:27.052Z,10.73
2023-05-13T22:43:53.914Z,9.60
2023-05-13T22:46:20.977Z,9.80
2023-05-13T22:48:48.003Z,10.13
2023-05-13T22:51:14.810Z,9.13
2023-05-13T22:53:41.683Z,10.80
2023-05-13T22:56:08.546Z,10.50
2023-05-13T22:58:35.824Z,9.40
2023-05-13T23:01:02.669Z,9.73
2023-05-13T23:03:29.517Z,9.47
2023-05-13T23:05:56.843Z,9.20
2023-05-13T23:08:23.730Z,8.97
2023-05-13T23:10:50.661Z,8.40
2023-05-13T23:13:17.556Z,9.20
2023-05-13T23:15:44.568Z,8.50
2023-05-13T23:18:11.513Z,8.90
2023-05-13T23:20:38.324Z,9.27
2023-05-13T23:23:05.190Z,8.97
2023-05-13T23:25:32.137Z,8.73
2023-05-13T23:27:58.977Z,8.87
2023-05-13T23:30:26.072Z,9.30
2023-05-13T23:32:53.005Z,9.23
2023-05-13T23:35:19.954Z,8.90
2023-05-13T23:37:46.852Z,9.87
2023-05-13T23:40:13.830Z,9.83
2023-05-13T23:42:40.613Z,8.50
2023-05-13T23:45:07.899Z,9.40
2023-05-13T23:47:34.713Z,9.37
2023-05-13T23:50:02.366Z,9.57
2023-05-13T23:52:29.297Z,9.67
2023-05-13T23:54:56.117Z,9.20
2023-05-13T23:57:22.933Z,8.30
2023-05-13T23:59:49.822Z,9.77
